sensor_id;sensor_type;location;lat;lon;timestamp;temperature;humidity
23089;DHT22;11713;48.506;8.966;2022-11-03T00:02:20;6.50;99.90
23089;DHT22;11713;48.506;8.966;2022-11-03T00:04:46;6.40;99.90
23089;DHT22;11713;48.506;8.966;2022-11-03T00:07:12;6.40;99.90
23089;DHT22;11713;48.506;8.966;2022-11-03T00:09:44;6.40;99.90
23089;DHT22;11713;48.506;8.966;2022-11-03T00:12:09;6.30;99.90
23089;DHT22;11713;48.506;8.966;2022-11-03T00:14:35;6.40;99.90
23089;DHT22;11713;48.506;8.966;2022-11-03T00:17:01;6.40;99.90
23089;DHT22;11713;48.506;8.966;2022-11-03T00:19:27;6.40;99.90
23089;DHT22;11713;48.506;8.966;2022-11-03T00:21:52;6.30;99.90
23089;DHT22;11713;48.506;8.966;2022-11-03T00:24:18;6.20;99.90
23089;DHT22;11713;48.506;8.966;2022-11-03T00:26:44;6.10;99.90
23089;DHT22;11713;48.506;8.966;2022-11-03T00:29:12;6.10;99.90
23089;DHT22;11713;48.506;8.966;2022-11-03T00:31:40;6.00;99.90
23089;DHT22;11713;48.506;8.966;2022-11-03T00:34:06;6.00;99.90
23089;DHT22;11713;48.506;8.966;2022-11-03T00:36:35;6.10;99.90
23089;DHT22;11713;48.506;8.966;2022-11-03T00:39:02;6.10;99.90
23089;DHT22;11713;48.506;8.966;2022-11-03T00:41:28;6.00;99.90
23089;DHT22;11713;48.506;8.966;2022-11-03T00:43:54;6.00;99.90
23089;DHT22;11713;48.506;8.966;2022-11-03T00:46:21;6.00;99.90
23089;DHT22;11713;48.506;8.966;2022-11-03T00:48:47;6.00;99.90
23089;DHT22;11713;48.506;8.966;2022-11-03T00:51:18;6.00;99.90
23089;DHT22;11713;48.506;8.966;2022-11-03T00:54:02;5.90;99.90
23089;DHT22;11713;48.506;8.966;2022-11-03T00:56:30;5.90;99.90
23089;DHT22;11713;48.506;8.966;2022-11-03T00:58:57;5.80;99.90
23089;DHT22;11713;48.506;8.966;2022-11-03T01:01:31;5.80;99.90
23089;DHT22;11713;48.506;8.966;2022-11-03T01:03:58;5.80;99.90
23089;DHT22;11713;48.506;8.966;2022-11-03T01:06:47;5.70;99.90
23089;DHT22;11713;48.506;8.966;2022-11-03T01:09:27;5.80;99.90
23089;DHT22;11713;48.506;8.966;2022-11-03T01:12:08;5.80;99.90
23089;DHT22;11713;48.506;8.966;2022-11-03T01:14:38;5.80;99.90
23089;DHT22;11713;48.506;8.966;2022-11-03T01:17:09;5.70;99.90
23089;DHT22;11713;48.506;8.966;2022-11-03T01:19:35;5.80;99.90
23089;DHT22;11713;48.506;8.966;2022-11-03T01:22:01;5.70;99.90
23089;DHT22;11713;48.506;8.966;2022-11-03T01:24:27;5.60;99.90
23089;DHT22;11713;48.506;8.966;2022-11-03T01:26:52;5.60;99.90
23089;DHT22;11713;48.506;8.966;2022-11-03T01:29:18;5.50;99.90
23089;DHT22;11713;48.506;8.966;2022-11-03T01:31:44;5.40;99.90
23089;DHT22;11713;48.506;8.966;2022-11-03T01:34:18;5.30;99.90
23089;DHT22;11713;48.506;8.966;2022-11-03T01:36:44;5.20;99.90
23089;DHT22;11713;48.506;8.966;2022-11-03T01:39:15;5.30;99.90
23089;DHT22;11713;48.506;8.966;2022-11-03T01:41:44;5.30;99.90
23089;DHT22;11713;48.506;8.966;2022-11-03T01:52:42;5.30;99.90
23089;DHT22;11713;48.506;8.966;2022-11-03T01:55:15;5.30;99.90
23089;DHT22;11713;48.506;8.966;2022-11-03T01:57:52;5.30;99.90
23089;DHT22;11713;48.506;8.966;2022-11-03T02:00:19;5.30;99.90
23089;DHT22;11713;48.506;8.966;2022-11-03T02:02:46;5.30;99.90
23089;DHT22;11713;48.506;8.966;2022-11-03T02:05:14;5.30;99.90
23089;DHT22;11713;48.506;8.966;2022-11-03T02:07:50;5.30;99.90
23089;DHT22;11713;48.506;8.966;2022-11-03T02:10:17;5.40;99.90
23089;DHT22;11713;48.506;8.966;2022-11-03T02:12:43;5.40;99.90
23089;DHT22;11713;48.506;8.966;2022-11-03T02:15:12;5.30;99.90
23089;DHT22;11713;48.506;8.966;2022-11-03T02:17:40;5.30;99.90
23089;DHT22;11713;48.506;8.966;2022-11-03T02:20:12;5.20;99.90
23089;DHT22;11713;48.506;8.966;2022-11-03T02:28:11;4.80;99.90
23089;DHT22;11713;48.506;8.966;2022-11-03T02:30:42;4.90;99.90
23089;DHT22;11713;48.506;8.966;2022-11-03T02:35:46;4.90;99.90
23089;DHT22;11713;48.506;8.966;2022-11-03T02:38:15;4.90;99.90
23089;DHT22;11713;48.506;8.966;2022-11-03T02:40:49;4.80;99.90
23089;DHT22;11713;48.506;8.966;2022-11-03T02:43:17;4.80;99.90
23089;DHT22;11713;48.506;8.966;2022-11-03T02:45:46;4.80;99.90
23089;DHT22;11713;48.506;8.966;2022-11-03T02:48:14;4.90;99.90
23089;DHT22;11713;48.506;8.966;2022-11-03T02:50:41;4.90;99.90
23089;DHT22;11713;48.506;8.966;2022-11-03T02:53:11;4.90;99.90
23089;DHT22;11713;48.506;8.966;2022-11-03T03:00:58;5.10;99.90
23089;DHT22;11713;48.506;8.966;2022-11-03T03:03:30;5.10;99.90
23089;DHT22;11713;48.506;8.966;2022-11-03T03:06:20;5.10;99.90
23089;DHT22;11713;48.506;8.966;2022-11-03T03:08:52;5.00;99.90
23089;DHT22;11713;48.506;8.966;2022-11-03T03:11:19;4.90;99.90
23089;DHT22;11713;48.506;8.966;2022-11-03T03:14:23;4.90;99.90
23089;DHT22;11713;48.506;8.966;2022-11-03T03:16:59;4.80;99.90
23089;DHT22;11713;48.506;8.966;2022-11-03T03:20:03;4.80;99.90
23089;DHT22;11713;48.506;8.966;2022-11-03T03:22:33;4.80;99.90
23089;DHT22;11713;48.506;8.966;2022-11-03T03:25:25;4.80;99.90
23089;DHT22;11713;48.506;8.966;2022-11-03T03:27:58;4.90;99.90
23089;DHT22;11713;48.506;8.966;2022-11-03T03:30:28;4.90;99.90
23089;DHT22;11713;48.506;8.966;2022-11-03T03:32:56;4.90;99.90
23089;DHT22;11713;48.506;8.966;2022-11-03T03:35:26;5.00;99.90
23089;DHT22;11713;48.506;8.966;2022-11-03T03:37:58;5.00;99.90
23089;DHT22;11713;48.506;8.966;2022-11-03T03:40:31;5.00;99.90
23089;DHT22;11713;48.506;8.966;2022-11-03T03:42:57;5.00;99.90
23089;DHT22;11713;48.506;8.966;2022-11-03T03:45:25;4.90;99.90
23089;DHT22;11713;48.506;8.966;2022-11-03T03:47:51;5.00;99.90
23089;DHT22;11713;48.506;8.966;2022-11-03T03:50:17;5.00;99.90
23089;DHT22;11713;48.506;8.966;2022-11-03T03:52:44;4.90;99.90
23089;DHT22;11713;48.506;8.966;2022-11-03T03:55:19;4.90;99.90
23089;DHT22;11713;48.506;8.966;2022-11-03T03:57:46;4.80;99.90
23089;DHT22;11713;48.506;8.966;2022-11-03T04:00:13;4.80;99.90
23089;DHT22;11713;48.506;8.966;2022-11-03T04:02:41;4.80;99.90
23089;DHT22;11713;48.506;8.966;2022-11-03T04:05:07;4.80;99.90
23089;DHT22;11713;48.506;8.966;2022-11-03T04:07:33;4.70;99.90
23089;DHT22;11713;48.506;8.966;2022-11-03T04:10:15;4.70;99.90
23089;DHT22;11713;48.506;8.966;2022-11-03T04:12:42;4.50;99.90
23089;DHT22;11713;48.506;8.966;2022-11-03T04:15:27;4.40;99.90
23089;DHT22;11713;48.506;8.966;2022-11-03T04:18:28;4.30;99.90
23089;DHT22;11713;48.506;8.966;2022-11-03T04:21:13;4.30;99.90
23089;DHT22;11713;48.506;8.966;2022-11-03T04:23:58;4.20;99.90
23089;DHT22;11713;48.506;8.966;2022-11-03T04:26:25;4.10;99.90
23089;DHT22;11713;48.506;8.966;2022-11-03T04:28:52;4.20;99.90
23089;DHT22;11713;48.506;8.966;2022-11-03T04:31:19;4.20;99.90
23089;DHT22;11713;48.506;8.966;2022-11-03T04:33:45;4.20;99.90
23089;DHT22;11713;48.506;8.966;2022-11-03T04:36:22;4.20;99.90
23089;DHT22;11713;48.506;8.966;2022-11-03T04:38:51;4.00;99.90
23089;DHT22;11713;48.506;8.966;2022-11-03T04:41:21;4.00;99.90
23089;DHT22;11713;48.506;8.966;2022-11-03T04:43:49;4.00;99.90
23089;DHT22;11713;48.506;8.966;2022-11-03T04:46:21;3.90;99.90
23089;DHT22;11713;48.506;8.966;2022-11-03T04:48:48;3.90;99.90
23089;DHT22;11713;48.506;8.966;2022-11-03T04:51:21;4.00;99.90
23089;DHT22;11713;48.506;8.966;2022-11-03T04:53:49;4.00;99.90
23089;DHT22;11713;48.506;8.966;2022-11-03T04:56:19;4.10;99.90
23089;DHT22;11713;48.506;8.966;2022-11-03T04:58:46;4.10;99.90
23089;DHT22;11713;48.506;8.966;2022-11-03T05:01:14;4.10;99.90
23089;DHT22;11713;48.506;8.966;2022-11-03T05:03:42;4.10;99.90
23089;DHT22;11713;48.506;8.966;2022-11-03T05:06:20;4.20;99.90
23089;DHT22;11713;48.506;8.966;2022-11-03T05:08:50;4.10;99.90
23089;DHT22;11713;48.506;8.966;2022-11-03T05:11:31;4.00;99.90
23089;DHT22;11713;48.506;8.966;2022-11-03T05:16:47;3.90;99.90
23089;DHT22;11713;48.506;8.966;2022-11-03T05:19:29;3.80;99.90
23089;DHT22;11713;48.506;8.966;2022-11-03T05:21:57;3.80;99.90
23089;DHT22;11713;48.506;8.966;2022-11-03T05:24:24;3.90;99.90
23089;DHT22;11713;48.506;8.966;2022-11-03T05:26:51;3.90;99.90
23089;DHT22;11713;48.506;8.966;2022-11-03T05:29:18;3.90;99.90
23089;DHT22;11713;48.506;8.966;2022-11-03T05:31:46;3.90;99.90
23089;DHT22;11713;48.506;8.966;2022-11-03T05:34:40;3.90;99.90
23089;DHT22;11713;48.506;8.966;2022-11-03T05:40:01;3.80;99.90
23089;DHT22;11713;48.506;8.966;2022-11-03T05:42:38;3.90;99.90
23089;DHT22;11713;48.506;8.966;2022-11-03T05:47:44;3.80;99.90
23089;DHT22;11713;48.506;8.966;2022-11-03T05:50:24;3.90;99.90
23089;DHT22;11713;48.506;8.966;2022-11-03T05:55:36;3.80;99.90
23089;DHT22;11713;48.506;8.966;2022-11-03T05:58:26;3.80;99.90
23089;DHT22;11713;48.506;8.966;2022-11-03T06:00:53;3.80;99.90
23089;DHT22;11713;48.506;8.966;2022-11-03T06:03:27;3.70;99.90
23089;DHT22;11713;48.506;8.966;2022-11-03T06:05:54;3.70;99.90
23089;DHT22;11713;48.506;8.966;2022-11-03T06:08:24;3.60;99.90
23089;DHT22;11713;48.506;8.966;2022-11-03T06:10:56;3.70;99.90
23089;DHT22;11713;48.506;8.966;2022-11-03T06:16:10;3.70;99.90
23089;DHT22;11713;48.506;8.966;2022-11-03T06:18:43;3.70;99.90
23089;DHT22;11713;48.506;8.966;2022-11-03T06:21:15;3.80;99.90
23089;DHT22;11713;48.506;8.966;2022-11-03T06:23:43;3.80;99.90
23089;DHT22;11713;48.506;8.966;2022-11-03T06:26:18;3.80;99.90
23089;DHT22;11713;48.506;8.966;2022-11-03T06:28:46;3.90;99.90
23089;DHT22;11713;48.506;8.966;2022-11-03T06:31:32;3.80;99.90
23089;DHT22;11713;48.506;8.966;2022-11-03T06:33:58;3.80;99.90
23089;DHT22;11713;48.506;8.966;2022-11-03T06:36:30;3.70;99.90
23089;DHT22;11713;48.506;8.966;2022-11-03T06:39:02;3.70;99.90
23089;DHT22;11713;48.506;8.966;2022-11-03T06:41:30;3.70;99.90
23089;DHT22;11713;48.506;8.966;2022-11-03T06:43:59;3.70;99.90
23089;DHT22;11713;48.506;8.966;2022-11-03T06:46:26;3.70;99.90
23089;DHT22;11713;48.506;8.966;2022-11-03T06:48:56;3.80;99.90
23089;DHT22;11713;48.506;8.966;2022-11-03T06:51:27;3.90;99.90
23089;DHT22;11713;48.506;8.966;2022-11-03T06:53:56;4.00;99.90
23089;DHT22;11713;48.506;8.966;2022-11-03T06:56:25;4.10;99.90
23089;DHT22;11713;48.506;8.966;2022-11-03T06:58:54;4.20;99.90
23089;DHT22;11713;48.506;8.966;2022-11-03T07:01:23;4.20;99.90
23089;DHT22;11713;48.506;8.966;2022-11-03T07:03:51;4.30;99.90
23089;DHT22;11713;48.506;8.966;2022-11-03T07:06:40;4.40;99.90
23089;DHT22;11713;48.506;8.966;2022-11-03T07:09:13;4.40;99.90
23089;DHT22;11713;48.506;8.966;2022-11-03T07:11:43;4.50;99.90
23089;DHT22;11713;48.506;8.966;2022-11-03T07:14:14;4.50;99.90
23089;DHT22;11713;48.506;8.966;2022-11-03T07:16:43;4.60;99.90
23089;DHT22;11713;48.506;8.966;2022-11-03T07:19:22;4.60;99.90
23089;DHT22;11713;48.506;8.966;2022-11-03T07:24:39;4.40;99.90
23089;DHT22;11713;48.506;8.966;2022-11-03T07:27:30;4.40;99.90
23089;DHT22;11713;48.506;8.966;2022-11-03T07:30:17;4.40;99.90
23089;DHT22;11713;48.506;8.966;2022-11-03T07:32:44;4.50;99.90
23089;DHT22;11713;48.506;8.966;2022-11-03T07:37:42;4.60;99.90
23089;DHT22;11713;48.506;8.966;2022-11-03T07:40:27;4.50;99.90
23089;DHT22;11713;48.506;8.966;2022-11-03T07:42:58;4.50;99.90
23089;DHT22;11713;48.506;8.966;2022-11-03T07:45:46;4.60;99.90
23089;DHT22;11713;48.506;8.966;2022-11-03T07:49:19;4.60;99.90
23089;DHT22;11713;48.506;8.966;2022-11-03T07:51:26;4.80;99.90
23089;DHT22;11713;48.506;8.966;2022-11-03T07:53:57;4.90;99.90
23089;DHT22;11713;48.506;8.966;2022-11-03T07:56:31;5.00;99.90
23089;DHT22;11713;48.506;8.966;2022-11-03T07:59:00;5.10;99.90
23089;DHT22;11713;48.506;8.966;2022-11-03T08:01:56;5.20;99.90
23089;DHT22;11713;48.506;8.966;2022-11-03T08:06:47;5.40;99.90
23089;DHT22;11713;48.506;8.966;2022-11-03T08:09:13;5.50;99.90
23089;DHT22;11713;48.506;8.966;2022-11-03T08:11:39;5.50;99.90
23089;DHT22;11713;48.506;8.966;2022-11-03T08:14:05;5.50;99.90
23089;DHT22;11713;48.506;8.966;2022-11-03T08:16:30;5.50;99.90
23089;DHT22;11713;48.506;8.966;2022-11-03T08:18:56;5.60;99.90
23089;DHT22;11713;48.506;8.966;2022-11-03T08:21:22;5.70;99.90
23089;DHT22;11713;48.506;8.966;2022-11-03T08:23:48;5.80;99.90
23089;DHT22;11713;48.506;8.966;2022-11-03T08:26:14;5.90;99.90
23089;DHT22;11713;48.506;8.966;2022-11-03T08:28:41;5.90;99.90
23089;DHT22;11713;48.506;8.966;2022-11-03T08:31:06;6.00;99.90
23089;DHT22;11713;48.506;8.966;2022-11-03T08:33:33;6.00;99.90
23089;DHT22;11713;48.506;8.966;2022-11-03T08:36:01;6.10;99.90
23089;DHT22;11713;48.506;8.966;2022-11-03T08:38:27;6.30;99.90
23089;DHT22;11713;48.506;8.966;2022-11-03T08:40:54;6.30;99.90
23089;DHT22;11713;48.506;8.966;2022-11-03T08:43:21;6.40;99.90
23089;DHT22;11713;48.506;8.966;2022-11-03T08:45:47;6.50;99.90
23089;DHT22;11713;48.506;8.966;2022-11-03T08:48:19;6.50;99.90
23089;DHT22;11713;48.506;8.966;2022-11-03T08:50:45;6.70;99.90
23089;DHT22;11713;48.506;8.966;2022-11-03T08:53:11;6.70;99.90
23089;DHT22;11713;48.506;8.966;2022-11-03T08:55:37;6.70;99.90
23089;DHT22;11713;48.506;8.966;2022-11-03T08:58:03;6.80;99.90
23089;DHT22;11713;48.506;8.966;2022-11-03T09:00:29;6.80;99.90
23089;DHT22;11713;48.506;8.966;2022-11-03T09:02:54;6.80;99.90
23089;DHT22;11713;48.506;8.966;2022-11-03T09:05:21;6.80;99.90
23089;DHT22;11713;48.506;8.966;2022-11-03T09:07:46;7.00;99.90
23089;DHT22;11713;48.506;8.966;2022-11-03T09:10:12;7.10;99.90
23089;DHT22;11713;48.506;8.966;2022-11-03T09:12:38;7.20;99.90
23089;DHT22;11713;48.506;8.966;2022-11-03T09:15:05;7.30;99.90
23089;DHT22;11713;48.506;8.966;2022-11-03T09:17:31;7.40;99.90
23089;DHT22;11713;48.506;8.966;2022-11-03T09:19:57;7.60;99.90
23089;DHT22;11713;48.506;8.966;2022-11-03T09:22:23;7.70;99.90
23089;DHT22;11713;48.506;8.966;2022-11-03T09:24:49;7.80;99.90
23089;DHT22;11713;48.506;8.966;2022-11-03T09:27:14;7.80;99.90
23089;DHT22;11713;48.506;8.966;2022-11-03T09:29:40;7.90;99.90
23089;DHT22;11713;48.506;8.966;2022-11-03T09:32:06;8.10;99.90
23089;DHT22;11713;48.506;8.966;2022-11-03T09:34:32;8.20;99.90
23089;DHT22;11713;48.506;8.966;2022-11-03T09:36:58;8.20;99.90
23089;DHT22;11713;48.506;8.966;2022-11-03T09:39:24;8.30;99.90
23089;DHT22;11713;48.506;8.966;2022-11-03T09:41:50;8.30;99.90
23089;DHT22;11713;48.506;8.966;2022-11-03T09:44:17;8.30;99.90
23089;DHT22;11713;48.506;8.966;2022-11-03T09:46:43;8.40;99.90
23089;DHT22;11713;48.506;8.966;2022-11-03T09:49:14;8.40;99.90
23089;DHT22;11713;48.506;8.966;2022-11-03T09:51:40;8.50;99.90
23089;DHT22;11713;48.506;8.966;2022-11-03T09:54:13;8.50;99.90
23089;DHT22;11713;48.506;8.966;2022-11-03T09:56:40;8.60;99.90
23089;DHT22;11713;48.506;8.966;2022-11-03T09:59:14;8.60;99.90
23089;DHT22;11713;48.506;8.966;2022-11-03T10:01:42;8.70;99.90
23089;DHT22;11713;48.506;8.966;2022-11-03T10:04:11;8.70;99.90
23089;DHT22;11713;48.506;8.966;2022-11-03T10:06:38;8.80;99.90
23089;DHT22;11713;48.506;8.966;2022-11-03T10:09:05;8.80;99.90
23089;DHT22;11713;48.506;8.966;2022-11-03T10:11:33;8.80;99.90
23089;DHT22;11713;48.506;8.966;2022-11-03T10:14:00;8.90;99.90
23089;DHT22;11713;48.506;8.966;2022-11-03T10:16:26;8.90;99.90
23089;DHT22;11713;48.506;8.966;2022-11-03T10:18:53;8.90;99.90
23089;DHT22;11713;48.506;8.966;2022-11-03T10:21:26;9.00;99.90
23089;DHT22;11713;48.506;8.966;2022-11-03T10:23:54;9.00;99.90
23089;DHT22;11713;48.506;8.966;2022-11-03T10:26:20;9.10;99.90
23089;DHT22;11713;48.506;8.966;2022-11-03T10:29:03;9.20;99.90
23089;DHT22;11713;48.506;8.966;2022-11-03T10:31:36;9.30;99.90
23089;DHT22;11713;48.506;8.966;2022-11-03T10:34:02;9.40;99.90
23089;DHT22;11713;48.506;8.966;2022-11-03T10:36:30;9.50;99.90
23089;DHT22;11713;48.506;8.966;2022-11-03T10:38:57;9.50;99.90
23089;DHT22;11713;48.506;8.966;2022-11-03T10:41:25;9.60;99.90
23089;DHT22;11713;48.506;8.966;2022-11-03T10:44:17;9.70;99.90
23089;DHT22;11713;48.506;8.966;2022-11-03T10:46:58;9.70;99.90
23089;DHT22;11713;48.506;8.966;2022-11-03T10:49:26;9.80;99.90
23089;DHT22;11713;48.506;8.966;2022-11-03T10:51:53;9.90;99.90
23089;DHT22;11713;48.506;8.966;2022-11-03T10:54:23;10.00;99.90
23089;DHT22;11713;48.506;8.966;2022-11-03T10:56:49;10.10;99.90
23089;DHT22;11713;48.506;8.966;2022-11-03T10:59:21;10.20;99.90
23089;DHT22;11713;48.506;8.966;2022-11-03T11:01:49;10.20;99.90
23089;DHT22;11713;48.506;8.966;2022-11-03T11:04:16;10.20;99.90
23089;DHT22;11713;48.506;8.966;2022-11-03T11:06:43;10.30;99.90
23089;DHT22;11713;48.506;8.966;2022-11-03T11:09:11;10.30;99.90
23089;DHT22;11713;48.506;8.966;2022-11-03T11:11:38;10.30;99.90
23089;DHT22;11713;48.506;8.966;2022-11-03T11:14:33;10.30;99.90
23089;DHT22;11713;48.506;8.966;2022-11-03T11:17:02;10.30;99.90
23089;DHT22;11713;48.506;8.966;2022-11-03T11:19:29;10.30;99.90
23089;DHT22;11713;48.506;8.966;2022-11-03T11:30:01;10.60;99.90
23089;DHT22;11713;48.506;8.966;2022-11-03T11:35:09;10.60;99.90
23089;DHT22;11713;48.506;8.966;2022-11-03T11:37:36;10.70;99.90
23089;DHT22;11713;48.506;8.966;2022-11-03T11:48:39;10.80;99.90
23089;DHT22;11713;48.506;8.966;2022-11-03T11:51:09;10.90;99.90
23089;DHT22;11713;48.506;8.966;2022-11-03T11:53:41;10.90;99.90
23089;DHT22;11713;48.506;8.966;2022-11-03T11:56:12;10.90;99.90
23089;DHT22;11713;48.506;8.966;2022-11-03T11:58:44;10.80;99.90
23089;DHT22;11713;48.506;8.966;2022-11-03T12:04:24;10.90;99.90
23089;DHT22;11713;48.506;8.966;2022-11-03T12:06:51;10.80;99.90
23089;DHT22;11713;48.506;8.966;2022-11-03T12:09:34;10.80;99.90
23089;DHT22;11713;48.506;8.966;2022-11-03T12:12:00;10.80;99.90
23089;DHT22;11713;48.506;8.966;2022-11-03T12:16:55;10.80;99.90
23089;DHT22;11713;48.506;8.966;2022-11-03T12:19:37;10.90;99.90
23089;DHT22;11713;48.506;8.966;2022-11-03T12:25:01;11.00;99.90
23089;DHT22;11713;48.506;8.966;2022-11-03T12:30:00;11.10;99.90
23089;DHT22;11713;48.506;8.966;2022-11-03T12:32:27;11.10;99.90
23089;DHT22;11713;48.506;8.966;2022-11-03T12:34:53;11.20;99.90
23089;DHT22;11713;48.506;8.966;2022-11-03T12:37:20;11.20;99.90
23089;DHT22;11713;48.506;8.966;2022-11-03T12:39:46;11.30;99.90
23089;DHT22;11713;48.506;8.966;2022-11-03T12:42:11;11.30;99.90
23089;DHT22;11713;48.506;8.966;2022-11-03T12:44:37;11.30;99.90
23089;DHT22;11713;48.506;8.966;2022-11-03T12:47:03;11.30;99.90
23089;DHT22;11713;48.506;8.966;2022-11-03T12:49:29;11.30;99.90
23089;DHT22;11713;48.506;8.966;2022-11-03T12:51:55;11.40;99.90
23089;DHT22;11713;48.506;8.966;2022-11-03T12:54:21;11.40;99.90
23089;DHT22;11713;48.506;8.966;2022-11-03T12:56:47;11.40;99.90
23089;DHT22;11713;48.506;8.966;2022-11-03T12:59:13;11.40;99.90
23089;DHT22;11713;48.506;8.966;2022-11-03T13:01:38;11.40;99.90
23089;DHT22;11713;48.506;8.966;2022-11-03T13:04:04;11.30;99.90
23089;DHT22;11713;48.506;8.966;2022-11-03T13:06:31;11.30;99.90
23089;DHT22;11713;48.506;8.966;2022-11-03T13:08:57;11.30;99.90
23089;DHT22;11713;48.506;8.966;2022-11-03T13:11:24;11.30;99.90
23089;DHT22;11713;48.506;8.966;2022-11-03T13:14:08;11.30;99.90
23089;DHT22;11713;48.506;8.966;2022-11-03T13:16:34;11.30;99.90
23089;DHT22;11713;48.506;8.966;2022-11-03T13:19:00;11.30;99.90
23089;DHT22;11713;48.506;8.966;2022-11-03T13:21:26;11.30;99.90
23089;DHT22;11713;48.506;8.966;2022-11-03T13:23:52;11.30;99.90
23089;DHT22;11713;48.506;8.966;2022-11-03T13:26:18;11.40;99.90
23089;DHT22;11713;48.506;8.966;2022-11-03T13:28:44;11.40;99.90
23089;DHT22;11713;48.506;8.966;2022-11-03T13:31:10;11.40;99.90
23089;DHT22;11713;48.506;8.966;2022-11-03T13:33:37;11.40;99.90
23089;DHT22;11713;48.506;8.966;2022-11-03T13:36:03;11.50;99.90
23089;DHT22;11713;48.506;8.966;2022-11-03T13:38:29;11.50;99.90
23089;DHT22;11713;48.506;8.966;2022-11-03T13:40:55;11.50;99.90
23089;DHT22;11713;48.506;8.966;2022-11-03T13:43:21;11.40;99.90
23089;DHT22;11713;48.506;8.966;2022-11-03T13:45:47;11.50;99.90
23089;DHT22;11713;48.506;8.966;2022-11-03T13:48:13;11.50;99.90
23089;DHT22;11713;48.506;8.966;2022-11-03T13:50:38;11.40;99.90
23089;DHT22;11713;48.506;8.966;2022-11-03T13:53:05;11.40;99.90
23089;DHT22;11713;48.506;8.966;2022-11-03T13:55:31;11.40;99.90
23089;DHT22;11713;48.506;8.966;2022-11-03T13:57:57;11.40;99.90
23089;DHT22;11713;48.506;8.966;2022-11-03T14:00:24;11.40;99.90
23089;DHT22;11713;48.506;8.966;2022-11-03T14:02:50;11.30;99.90
23089;DHT22;11713;48.506;8.966;2022-11-03T14:05:16;11.30;99.90
23089;DHT22;11713;48.506;8.966;2022-11-03T14:07:42;11.30;99.90
23089;DHT22;11713;48.506;8.966;2022-11-03T14:10:08;11.30;99.90
23089;DHT22;11713;48.506;8.966;2022-11-03T14:12:34;11.20;99.90
23089;DHT22;11713;48.506;8.966;2022-11-03T14:15:04;11.20;99.90
23089;DHT22;11713;48.506;8.966;2022-11-03T14:17:31;11.20;99.90
23089;DHT22;11713;48.506;8.966;2022-11-03T14:19:57;11.20;99.90
23089;DHT22;11713;48.506;8.966;2022-11-03T14:22:23;11.10;99.90
23089;DHT22;11713;48.506;8.966;2022-11-03T14:24:50;11.20;99.90
23089;DHT22;11713;48.506;8.966;2022-11-03T14:27:17;11.10;99.90
23089;DHT22;11713;48.506;8.966;2022-11-03T14:29:43;11.20;99.90
23089;DHT22;11713;48.506;8.966;2022-11-03T14:32:12;11.20;99.90
23089;DHT22;11713;48.506;8.966;2022-11-03T14:34:38;11.10;99.90
23089;DHT22;11713;48.506;8.966;2022-11-03T14:37:04;11.10;99.90
23089;DHT22;11713;48.506;8.966;2022-11-03T14:39:30;11.10;99.90
23089;DHT22;11713;48.506;8.966;2022-11-03T14:41:56;11.10;99.90
23089;DHT22;11713;48.506;8.966;2022-11-03T14:44:38;11.10;99.90
23089;DHT22;11713;48.506;8.966;2022-11-03T14:47:10;11.10;99.90
23089;DHT22;11713;48.506;8.966;2022-11-03T14:49:36;11.10;99.90
23089;DHT22;11713;48.506;8.966;2022-11-03T14:52:04;11.10;99.90
23089;DHT22;11713;48.506;8.966;2022-11-03T14:54:31;11.10;99.90
23089;DHT22;11713;48.506;8.966;2022-11-03T14:56:58;11.10;99.90
23089;DHT22;11713;48.506;8.966;2022-11-03T14:59:24;11.00;99.90
23089;DHT22;11713;48.506;8.966;2022-11-03T15:01:51;11.00;99.90
23089;DHT22;11713;48.506;8.966;2022-11-03T15:04:18;11.00;99.90
23089;DHT22;11713;48.506;8.966;2022-11-03T15:06:44;11.00;99.90
23089;DHT22;11713;48.506;8.966;2022-11-03T15:09:11;11.00;99.90
23089;DHT22;11713;48.506;8.966;2022-11-03T15:11:42;10.90;99.90
23089;DHT22;11713;48.506;8.966;2022-11-03T15:14:08;11.00;99.90
23089;DHT22;11713;48.506;8.966;2022-11-03T15:16:35;11.00;99.90
23089;DHT22;11713;48.506;8.966;2022-11-03T15:19:02;10.90;99.90
23089;DHT22;11713;48.506;8.966;2022-11-03T15:21:29;10.80;99.90
23089;DHT22;11713;48.506;8.966;2022-11-03T15:23:55;10.80;99.90
23089;DHT22;11713;48.506;8.966;2022-11-03T15:26:21;10.90;99.90
23089;DHT22;11713;48.506;8.966;2022-11-03T15:28:47;10.80;99.90
23089;DHT22;11713;48.506;8.966;2022-11-03T15:31:13;10.80;99.90
23089;DHT22;11713;48.506;8.966;2022-11-03T15:33:39;10.80;99.90
23089;DHT22;11713;48.506;8.966;2022-11-03T15:36:05;10.80;99.90
23089;DHT22;11713;48.506;8.966;2022-11-03T15:38:32;10.70;99.90
23089;DHT22;11713;48.506;8.966;2022-11-03T15:40:58;10.70;99.90
23089;DHT22;11713;48.506;8.966;2022-11-03T15:43:47;10.70;99.90
23089;DHT22;11713;48.506;8.966;2022-11-03T15:46:14;10.60;99.90
23089;DHT22;11713;48.506;8.966;2022-11-03T15:48:41;10.60;99.90
23089;DHT22;11713;48.506;8.966;2022-11-03T15:51:07;10.60;99.90
23089;DHT22;11713;48.506;8.966;2022-11-03T15:53:33;10.60;99.90
23089;DHT22;11713;48.506;8.966;2022-11-03T15:55:59;10.60;99.90
23089;DHT22;11713;48.506;8.966;2022-11-03T15:58:25;10.60;99.90
23089;DHT22;11713;48.506;8.966;2022-11-03T16:00:51;10.60;99.90
23089;DHT22;11713;48.506;8.966;2022-11-03T16:03:17;10.60;99.90
23089;DHT22;11713;48.506;8.966;2022-11-03T16:05:43;10.60;99.90
23089;DHT22;11713;48.506;8.966;2022-11-03T16:08:08;10.60;99.90
23089;DHT22;11713;48.506;8.966;2022-11-03T16:10:34;10.50;99.90
23089;DHT22;11713;48.506;8.966;2022-11-03T16:13:00;10.50;99.90
23089;DHT22;11713;48.506;8.966;2022-11-03T16:15:26;10.50;99.90
23089;DHT22;11713;48.506;8.966;2022-11-03T16:17:51;10.50;99.90
23089;DHT22;11713;48.506;8.966;2022-11-03T16:20:17;10.40;99.90
23089;DHT22;11713;48.506;8.966;2022-11-03T16:22:45;10.40;99.90
23089;DHT22;11713;48.506;8.966;2022-11-03T16:25:10;10.40;99.90
23089;DHT22;11713;48.506;8.966;2022-11-03T16:27:36;10.40;99.90
23089;DHT22;11713;48.506;8.966;2022-11-03T16:30:02;10.40;99.90
23089;DHT22;11713;48.506;8.966;2022-11-03T16:32:28;10.30;99.90
23089;DHT22;11713;48.506;8.966;2022-11-03T16:34:54;10.30;99.90
23089;DHT22;11713;48.506;8.966;2022-11-03T16:37:20;10.30;99.90
23089;DHT22;11713;48.506;8.966;2022-11-03T16:39:46;10.30;99.90
23089;DHT22;11713;48.506;8.966;2022-11-03T16:42:12;10.20;99.90
23089;DHT22;11713;48.506;8.966;2022-11-03T16:44:38;10.20;99.90
23089;DHT22;11713;48.506;8.966;2022-11-03T16:47:04;10.20;99.90
23089;DHT22;11713;48.506;8.966;2022-11-03T16:49:30;10.20;99.90
23089;DHT22;11713;48.506;8.966;2022-11-03T16:51:55;10.20;99.90
23089;DHT22;11713;48.506;8.966;2022-11-03T16:54:21;10.20;99.90
23089;DHT22;11713;48.506;8.966;2022-11-03T16:56:47;10.20;99.90
23089;DHT22;11713;48.506;8.966;2022-11-03T16:59:13;10.20;99.90
23089;DHT22;11713;48.506;8.966;2022-11-03T17:01:39;10.20;99.90
23089;DHT22;11713;48.506;8.966;2022-11-03T17:04:05;10.20;99.90
23089;DHT22;11713;48.506;8.966;2022-11-03T17:06:31;10.20;99.90
23089;DHT22;11713;48.506;8.966;2022-11-03T17:08:56;10.20;99.90